sensor_id;sensor_type;location;lat;lon;timestamp;P1;durP1;ratioP1;P2;durP2;ratioP2
4839;SDS011;2434;48.486;7.964;2023-02-15T00:02:09;45.20;;;23.50;;
4839;SDS011;2434;48.486;7.964;2023-02-15T00:04:37;51.57;;;23.40;;
4839;SDS011;2434;48.486;7.964;2023-02-15T00:07:16;39.67;;;22.20;;
4839;SDS011;2434;48.486;7.964;2023-02-15T00:09:46;37.80;;;21.23;;
4839;SDS011;2434;48.486;7.964;2023-02-15T00:12:14;38.77;;;22.03;;
4839;SDS011;2434;48.486;7.964;2023-02-15T00:14:43;33.83;;;20.43;;
4839;SDS011;2434;48.486;7.964;2023-02-15T00:17:12;33.33;;;19.70;;
4839;SDS011;2434;48.486;7.964;2023-02-15T00:19:40;33.70;;;19.93;;
4839;SDS011;2434;48.486;7.964;2023-02-15T00:22:08;35.80;;;20.60;;
4839;SDS011;2434;48.486;7.964;2023-02-15T00:24:38;26.80;;;16.43;;
4839;SDS011;2434;48.486;7.964;2023-02-15T00:27:06;36.00;;;20.67;;
4839;SDS011;2434;48.486;7.964;2023-02-15T00:29:35;33.03;;;19.13;;
4839;SDS011;2434;48.486;7.964;2023-02-15T00:32:03;34.47;;;20.23;;
4839;SDS011;2434;48.486;7.964;2023-02-15T00:34:32;34.20;;;20.13;;
4839;SDS011;2434;48.486;7.964;2023-02-15T00:37:00;33.00;;;18.77;;
4839;SDS011;2434;48.486;7.964;2023-02-15T00:39:28;30.10;;;17.30;;
4839;SDS011;2434;48.486;7.964;2023-02-15T00:41:59;34.07;;;19.67;;
4839;SDS011;2434;48.486;7.964;2023-02-15T00:44:28;33.30;;;18.33;;
4839;SDS011;2434;48.486;7.964;2023-02-15T00:46:56;32.50;;;18.03;;
4839;SDS011;2434;48.486;7.964;2023-02-15T00:49:25;32.27;;;19.53;;
4839;SDS011;2434;48.486;7.964;2023-02-15T00:51:53;32.50;;;19.27;;
4839;SDS011;2434;48.486;7.964;2023-02-15T00:54:21;37.53;;;19.47;;
4839;SDS011;2434;48.486;7.964;2023-02-15T00:56:49;28.97;;;17.37;;
4839;SDS011;2434;48.486;7.964;2023-02-15T00:59:19;31.10;;;18.77;;
4839;SDS011;2434;48.486;7.964;2023-02-15T01:01:47;33.07;;;19.53;;
4839;SDS011;2434;48.486;7.964;2023-02-15T01:04:18;37.43;;;20.20;;
4839;SDS011;2434;48.486;7.964;2023-02-15T01:06:46;32.77;;;20.00;;
4839;SDS011;2434;48.486;7.964;2023-02-15T01:09:14;34.53;;;19.30;;
4839;SDS011;2434;48.486;7.964;2023-02-15T01:11:42;81.57;;;20.40;;
4839;SDS011;2434;48.486;7.964;2023-02-15T01:14:10;53.50;;;20.80;;
4839;SDS011;2434;48.486;7.964;2023-02-15T01:16:41;36.67;;;21.20;;
4839;SDS011;2434;48.486;7.964;2023-02-15T01:19:10;35.37;;;20.10;;
4839;SDS011;2434;48.486;7.964;2023-02-15T01:21:38;41.63;;;20.20;;
4839;SDS011;2434;48.486;7.964;2023-02-15T01:24:10;58.83;;;21.30;;
4839;SDS011;2434;48.486;7.964;2023-02-15T01:26:39;55.57;;;21.67;;
4839;SDS011;2434;48.486;7.964;2023-02-15T01:29:07;50.50;;;21.77;;
4839;SDS011;2434;48.486;7.964;2023-02-15T01:31:36;105.23;;;24.73;;
4839;SDS011;2434;48.486;7.964;2023-02-15T01:34:07;71.67;;;22.63;;
4839;SDS011;2434;48.486;7.964;2023-02-15T01:36:37;37.53;;;21.00;;
4839;SDS011;2434;48.486;7.964;2023-02-15T01:39:05;39.63;;;20.60;;
4839;SDS011;2434;48.486;7.964;2023-02-15T01:41:35;38.37;;;20.60;;
4839;SDS011;2434;48.486;7.964;2023-02-15T01:47:07;33.83;;;18.47;;
4839;SDS011;2434;48.486;7.964;2023-02-15T01:49:37;32.37;;;18.43;;
4839;SDS011;2434;48.486;7.964;2023-02-15T01:52:07;33.50;;;20.17;;
4839;SDS011;2434;48.486;7.964;2023-02-15T01:54:38;31.80;;;17.57;;
4839;SDS011;2434;48.486;7.964;2023-02-15T01:57:12;33.53;;;19.33;;
4839;SDS011;2434;48.486;7.964;2023-02-15T01:59:45;28.23;;;18.13;;
4839;SDS011;2434;48.486;7.964;2023-02-15T02:02:16;32.47;;;18.87;;
4839;SDS011;2434;48.486;7.964;2023-02-15T02:04:49;28.00;;;17.90;;
4839;SDS011;2434;48.486;7.964;2023-02-15T02:07:19;27.73;;;16.87;;
4839;SDS011;2434;48.486;7.964;2023-02-15T02:09:49;31.23;;;18.57;;
4839;SDS011;2434;48.486;7.964;2023-02-15T02:12:22;29.60;;;16.93;;
4839;SDS011;2434;48.486;7.964;2023-02-15T02:14:52;36.23;;;16.97;;
4839;SDS011;2434;48.486;7.964;2023-02-15T02:17:22;28.57;;;16.17;;
4839;SDS011;2434;48.486;7.964;2023-02-15T02:20:06;32.50;;;17.10;;
4839;SDS011;2434;48.486;7.964;2023-02-15T02:23:03;35.70;;;17.80;;
4839;SDS011;2434;48.486;7.964;2023-02-15T02:26:07;30.07;;;17.30;;
4839;SDS011;2434;48.486;7.964;2023-02-15T02:29:18;28.27;;;17.17;;
4839;SDS011;2434;48.486;7.964;2023-02-15T02:35:22;29.33;;;17.87;;
4839;SDS011;2434;48.486;7.964;2023-02-15T02:37:56;30.43;;;17.57;;
4839;SDS011;2434;48.486;7.964;2023-02-15T02:40:33;26.67;;;16.57;;
4839;SDS011;2434;48.486;7.964;2023-02-15T02:43:10;27.73;;;16.63;;
4839;SDS011;2434;48.486;7.964;2023-02-15T02:45:43;26.00;;;16.80;;
4839;SDS011;2434;48.486;7.964;2023-02-15T02:48:18;28.90;;;16.63;;
4839;SDS011;2434;48.486;7.964;2023-02-15T02:50:50;24.30;;;14.90;;
4839;SDS011;2434;48.486;7.964;2023-02-15T02:53:18;24.37;;;15.70;;
4839;SDS011;2434;48.486;7.964;2023-02-15T02:55:49;25.60;;;16.70;;
4839;SDS011;2434;48.486;7.964;2023-02-15T02:58:21;27.33;;;16.17;;
4839;SDS011;2434;48.486;7.964;2023-02-15T03:00:57;28.63;;;16.57;;
4839;SDS011;2434;48.486;7.964;2023-02-15T03:03:34;22.93;;;14.90;;
4839;SDS011;2434;48.486;7.964;2023-02-15T03:06:07;23.47;;;14.57;;
4839;SDS011;2434;48.486;7.964;2023-02-15T03:08:40;25.63;;;14.80;;
4839;SDS011;2434;48.486;7.964;2023-02-15T03:11:12;25.53;;;15.57;;
4839;SDS011;2434;48.486;7.964;2023-02-15T03:13:40;25.43;;;17.40;;
4839;SDS011;2434;48.486;7.964;2023-02-15T03:16:10;24.70;;;14.70;;
4839;SDS011;2434;48.486;7.964;2023-02-15T03:18:54;24.87;;;16.60;;
4839;SDS011;2434;48.486;7.964;2023-02-15T03:21:34;28.60;;;16.43;;
4839;SDS011;2434;48.486;7.964;2023-02-15T03:24:07;22.37;;;14.37;;
4839;SDS011;2434;48.486;7.964;2023-02-15T03:26:37;29.70;;;16.00;;
4839;SDS011;2434;48.486;7.964;2023-02-15T03:29:08;34.00;;;17.13;;
4839;SDS011;2434;48.486;7.964;2023-02-15T03:31:39;26.60;;;15.80;;
4839;SDS011;2434;48.486;7.964;2023-02-15T03:34:11;28.93;;;15.93;;
4839;SDS011;2434;48.486;7.964;2023-02-15T03:36:45;28.97;;;16.30;;
4839;SDS011;2434;48.486;7.964;2023-02-15T03:39:18;28.30;;;15.77;;
4839;SDS011;2434;48.486;7.964;2023-02-15T03:41:54;25.60;;;16.60;;
4839;SDS011;2434;48.486;7.964;2023-02-15T03:44:27;29.33;;;15.50;;
4839;SDS011;2434;48.486;7.964;2023-02-15T03:46:59;27.33;;;14.20;;
4839;SDS011;2434;48.486;7.964;2023-02-15T03:49:32;23.47;;;15.97;;
4839;SDS011;2434;48.486;7.964;2023-02-15T03:52:07;21.67;;;14.13;;
4839;SDS011;2434;48.486;7.964;2023-02-15T03:54:37;22.47;;;15.20;;
4839;SDS011;2434;48.486;7.964;2023-02-15T03:57:10;27.70;;;16.90;;
4839;SDS011;2434;48.486;7.964;2023-02-15T03:59:59;24.53;;;15.73;;
4839;SDS011;2434;48.486;7.964;2023-02-15T04:02:51;20.67;;;14.23;;
4839;SDS011;2434;48.486;7.964;2023-02-15T04:05:32;24.43;;;15.90;;
4839;SDS011;2434;48.486;7.964;2023-02-15T04:08:02;22.43;;;14.93;;
4839;SDS011;2434;48.486;7.964;2023-02-15T04:10:30;29.07;;;15.10;;
4839;SDS011;2434;48.486;7.964;2023-02-15T04:13:16;22.33;;;14.23;;
4839;SDS011;2434;48.486;7.964;2023-02-15T04:15:44;32.17;;;15.50;;
4839;SDS011;2434;48.486;7.964;2023-02-15T04:18:30;19.27;;;13.20;;
4839;SDS011;2434;48.486;7.964;2023-02-15T04:21:17;22.90;;;14.20;;
4839;SDS011;2434;48.486;7.964;2023-02-15T04:24:05;21.90;;;14.00;;
4839;SDS011;2434;48.486;7.964;2023-02-15T04:26:52;26.07;;;14.93;;
4839;SDS011;2434;48.486;7.964;2023-02-15T04:29:20;21.40;;;14.07;;
4839;SDS011;2434;48.486;7.964;2023-02-15T04:31:50;25.80;;;15.30;;
4839;SDS011;2434;48.486;7.964;2023-02-15T04:34:18;20.57;;;14.33;;
4839;SDS011;2434;48.486;7.964;2023-02-15T04:36:47;21.97;;;12.87;;
4839;SDS011;2434;48.486;7.964;2023-02-15T04:39:18;23.47;;;14.40;;
4839;SDS011;2434;48.486;7.964;2023-02-15T04:41:46;22.50;;;15.43;;
4839;SDS011;2434;48.486;7.964;2023-02-15T04:44:15;22.87;;;13.70;;
4839;SDS011;2434;48.486;7.964;2023-02-15T04:46:43;23.53;;;14.60;;
4839;SDS011;2434;48.486;7.964;2023-02-15T04:49:11;22.00;;;14.30;;
4839;SDS011;2434;48.486;7.964;2023-02-15T04:51:39;26.83;;;15.10;;
4839;SDS011;2434;48.486;7.964;2023-02-15T04:54:08;27.30;;;15.37;;
4839;SDS011;2434;48.486;7.964;2023-02-15T04:56:37;24.87;;;14.07;;
4839;SDS011;2434;48.486;7.964;2023-02-15T04:59:05;23.97;;;16.13;;
4839;SDS011;2434;48.486;7.964;2023-02-15T05:01:33;21.07;;;13.10;;
4839;SDS011;2434;48.486;7.964;2023-02-15T05:04:02;22.53;;;14.87;;
4839;SDS011;2434;48.486;7.964;2023-02-15T05:06:30;20.83;;;13.73;;
4839;SDS011;2434;48.486;7.964;2023-02-15T05:09:02;20.80;;;13.00;;
4839;SDS011;2434;48.486;7.964;2023-02-15T05:11:30;19.37;;;13.07;;
4839;SDS011;2434;48.486;7.964;2023-02-15T05:14:00;23.67;;;13.40;;
4839;SDS011;2434;48.486;7.964;2023-02-15T05:16:28;21.30;;;12.30;;
4839;SDS011;2434;48.486;7.964;2023-02-15T05:18:56;18.57;;;12.33;;
4839;SDS011;2434;48.486;7.964;2023-02-15T05:21:24;23.00;;;13.10;;
4839;SDS011;2434;48.486;7.964;2023-02-15T05:23:53;21.17;;;12.77;;
4839;SDS011;2434;48.486;7.964;2023-02-15T05:26:22;22.10;;;14.00;;
4839;SDS011;2434;48.486;7.964;2023-02-15T05:29:10;39.33;;;13.20;;
4839;SDS011;2434;48.486;7.964;2023-02-15T05:31:39;22.47;;;13.53;;
4839;SDS011;2434;48.486;7.964;2023-02-15T05:34:07;20.40;;;13.00;;
4839;SDS011;2434;48.486;7.964;2023-02-15T05:36:35;22.77;;;14.20;;
4839;SDS011;2434;48.486;7.964;2023-02-15T05:39:03;22.03;;;13.30;;
4839;SDS011;2434;48.486;7.964;2023-02-15T05:41:33;22.60;;;13.60;;
4839;SDS011;2434;48.486;7.964;2023-02-15T05:44:01;18.83;;;12.63;;
4839;SDS011;2434;48.486;7.964;2023-02-15T05:46:30;22.80;;;13.27;;
4839;SDS011;2434;48.486;7.964;2023-02-15T05:48:59;18.60;;;11.83;;
4839;SDS011;2434;48.486;7.964;2023-02-15T05:51:27;21.73;;;13.20;;
4839;SDS011;2434;48.486;7.964;2023-02-15T05:53:55;26.70;;;13.13;;
4839;SDS011;2434;48.486;7.964;2023-02-15T05:56:23;20.10;;;12.77;;
4839;SDS011;2434;48.486;7.964;2023-02-15T05:58:52;22.60;;;13.87;;
4839;SDS011;2434;48.486;7.964;2023-02-15T06:01:21;19.33;;;12.30;;
4839;SDS011;2434;48.486;7.964;2023-02-15T06:03:50;22.73;;;13.70;;
4839;SDS011;2434;48.486;7.964;2023-02-15T06:06:20;20.93;;;13.23;;
4839;SDS011;2434;48.486;7.964;2023-02-15T06:08:48;16.90;;;11.17;;
4839;SDS011;2434;48.486;7.964;2023-02-15T06:11:16;15.73;;;10.67;;
4839;SDS011;2434;48.486;7.964;2023-02-15T06:13:45;20.53;;;12.60;;
4839;SDS011;2434;48.486;7.964;2023-02-15T06:16:13;22.17;;;13.10;;
4839;SDS011;2434;48.486;7.964;2023-02-15T06:18:42;21.67;;;12.10;;
4839;SDS011;2434;48.486;7.964;2023-02-15T06:21:11;22.53;;;12.27;;
4839;SDS011;2434;48.486;7.964;2023-02-15T06:23:40;21.57;;;13.00;;
4839;SDS011;2434;48.486;7.964;2023-02-15T06:26:08;30.53;;;13.57;;
4839;SDS011;2434;48.486;7.964;2023-02-15T06:28:36;23.03;;;14.50;;
4839;SDS011;2434;48.486;7.964;2023-02-15T06:31:05;23.57;;;13.90;;
4839;SDS011;2434;48.486;7.964;2023-02-15T06:33:34;22.10;;;13.37;;
4839;SDS011;2434;48.486;7.964;2023-02-15T06:36:02;19.60;;;12.80;;
4839;SDS011;2434;48.486;7.964;2023-02-15T06:38:32;19.87;;;12.60;;
4839;SDS011;2434;48.486;7.964;2023-02-15T06:41:00;20.27;;;12.67;;
4839;SDS011;2434;48.486;7.964;2023-02-15T06:43:28;18.80;;;11.93;;
4839;SDS011;2434;48.486;7.964;2023-02-15T06:45:57;20.57;;;13.27;;
4839;SDS011;2434;48.486;7.964;2023-02-15T06:48:26;26.43;;;13.87;;
4839;SDS011;2434;48.486;7.964;2023-02-15T06:50:54;19.70;;;13.00;;
4839;SDS011;2434;48.486;7.964;2023-02-15T06:53:22;23.67;;;13.33;;
4839;SDS011;2434;48.486;7.964;2023-02-15T06:55:52;21.50;;;12.43;;
4839;SDS011;2434;48.486;7.964;2023-02-15T06:58:20;22.10;;;13.50;;
4839;SDS011;2434;48.486;7.964;2023-02-15T07:00:48;19.70;;;12.57;;
4839;SDS011;2434;48.486;7.964;2023-02-15T07:03:16;18.50;;;11.90;;
4839;SDS011;2434;48.486;7.964;2023-02-15T07:05:44;21.17;;;13.20;;
4839;SDS011;2434;48.486;7.964;2023-02-15T07:08:13;23.37;;;12.37;;
4839;SDS011;2434;48.486;7.964;2023-02-15T07:10:43;17.80;;;11.40;;
4839;SDS011;2434;48.486;7.964;2023-02-15T07:13:12;21.00;;;12.63;;
4839;SDS011;2434;48.486;7.964;2023-02-15T07:15:39;18.60;;;12.60;;
4839;SDS011;2434;48.486;7.964;2023-02-15T07:18:08;17.70;;;12.47;;
4839;SDS011;2434;48.486;7.964;2023-02-15T07:20:37;22.83;;;14.73;;
4839;SDS011;2434;48.486;7.964;2023-02-15T07:23:08;22.30;;;13.17;;
4839;SDS011;2434;48.486;7.964;2023-02-15T07:25:36;18.47;;;12.00;;
4839;SDS011;2434;48.486;7.964;2023-02-15T07:28:04;27.47;;;13.20;;
4839;SDS011;2434;48.486;7.964;2023-02-15T07:30:34;20.80;;;13.63;;
4839;SDS011;2434;48.486;7.964;2023-02-15T07:33:03;21.87;;;13.97;;
4839;SDS011;2434;48.486;7.964;2023-02-15T07:35:48;24.80;;;13.63;;
4839;SDS011;2434;48.486;7.964;2023-02-15T07:38:18;23.50;;;13.57;;
4839;SDS011;2434;48.486;7.964;2023-02-15T07:40:46;21.70;;;13.83;;
4839;SDS011;2434;48.486;7.964;2023-02-15T07:43:14;22.40;;;13.20;;
4839;SDS011;2434;48.486;7.964;2023-02-15T07:45:44;22.23;;;13.93;;
4839;SDS011;2434;48.486;7.964;2023-02-15T07:48:12;20.50;;;13.40;;
4839;SDS011;2434;48.486;7.964;2023-02-15T07:50:40;26.23;;;15.93;;
4839;SDS011;2434;48.486;7.964;2023-02-15T07:53:08;20.67;;;13.87;;
4839;SDS011;2434;48.486;7.964;2023-02-15T07:55:36;19.97;;;13.70;;
4839;SDS011;2434;48.486;7.964;2023-02-15T07:58:05;21.70;;;13.90;;
4839;SDS011;2434;48.486;7.964;2023-02-15T08:00:33;22.57;;;14.00;;
4839;SDS011;2434;48.486;7.964;2023-02-15T08:03:23;23.83;;;14.20;;
4839;SDS011;2434;48.486;7.964;2023-02-15T08:05:55;21.20;;;13.27;;
4839;SDS011;2434;48.486;7.964;2023-02-15T08:08:25;22.63;;;14.03;;
4839;SDS011;2434;48.486;7.964;2023-02-15T08:11:00;21.00;;;13.57;;
4839;SDS011;2434;48.486;7.964;2023-02-15T08:13:48;24.10;;;15.33;;
4839;SDS011;2434;48.486;7.964;2023-02-15T08:16:24;24.80;;;16.00;;
4839;SDS011;2434;48.486;7.964;2023-02-15T08:18:56;20.80;;;13.87;;
4839;SDS011;2434;48.486;7.964;2023-02-15T08:21:25;21.50;;;14.60;;
4839;SDS011;2434;48.486;7.964;2023-02-15T08:23:54;22.90;;;14.73;;
4839;SDS011;2434;48.486;7.964;2023-02-15T08:26:23;24.70;;;14.50;;
4839;SDS011;2434;48.486;7.964;2023-02-15T08:28:53;24.00;;;14.87;;
4839;SDS011;2434;48.486;7.964;2023-02-15T08:31:22;22.67;;;14.10;;
4839;SDS011;2434;48.486;7.964;2023-02-15T08:33:51;25.33;;;15.43;;
4839;SDS011;2434;48.486;7.964;2023-02-15T08:36:22;25.67;;;14.70;;
4839;SDS011;2434;48.486;7.964;2023-02-15T08:38:52;22.57;;;14.43;;
4839;SDS011;2434;48.486;7.964;2023-02-15T08:41:21;27.00;;;15.80;;
4839;SDS011;2434;48.486;7.964;2023-02-15T08:43:51;22.00;;;15.20;;
4839;SDS011;2434;48.486;7.964;2023-02-15T08:46:21;27.47;;;17.70;;
4839;SDS011;2434;48.486;7.964;2023-02-15T08:48:51;23.53;;;15.10;;
4839;SDS011;2434;48.486;7.964;2023-02-15T08:51:20;20.17;;;13.33;;
4839;SDS011;2434;48.486;7.964;2023-02-15T08:53:51;25.73;;;15.77;;
4839;SDS011;2434;48.486;7.964;2023-02-15T08:56:21;24.73;;;14.17;;
4839;SDS011;2434;48.486;7.964;2023-02-15T08:58:51;22.93;;;15.10;;
4839;SDS011;2434;48.486;7.964;2023-02-15T09:01:20;21.33;;;14.70;;
4839;SDS011;2434;48.486;7.964;2023-02-15T09:03:50;25.47;;;16.40;;
4839;SDS011;2434;48.486;7.964;2023-02-15T09:06:23;24.00;;;15.00;;
4839;SDS011;2434;48.486;7.964;2023-02-15T09:08:52;28.50;;;17.07;;
4839;SDS011;2434;48.486;7.964;2023-02-15T09:11:22;25.00;;;15.80;;
4839;SDS011;2434;48.486;7.964;2023-02-15T09:13:52;27.83;;;17.67;;
4839;SDS011;2434;48.486;7.964;2023-02-15T09:16:21;26.97;;;17.57;;
4839;SDS011;2434;48.486;7.964;2023-02-15T09:18:51;30.70;;;17.30;;
4839;SDS011;2434;48.486;7.964;2023-02-15T09:21:21;30.60;;;18.57;;
4839;SDS011;2434;48.486;7.964;2023-02-15T09:23:54;28.80;;;19.20;;
4839;SDS011;2434;48.486;7.964;2023-02-15T09:26:24;28.27;;;18.90;;
4839;SDS011;2434;48.486;7.964;2023-02-15T09:28:53;25.97;;;16.93;;
4839;SDS011;2434;48.486;7.964;2023-02-15T09:31:24;28.27;;;17.77;;
4839;SDS011;2434;48.486;7.964;2023-02-15T09:33:53;27.47;;;17.40;;
4839;SDS011;2434;48.486;7.964;2023-02-15T09:36:22;30.17;;;16.67;;
4839;SDS011;2434;48.486;7.964;2023-02-15T09:38:53;24.53;;;16.97;;
4839;SDS011;2434;48.486;7.964;2023-02-15T09:41:30;28.53;;;17.73;;
4839;SDS011;2434;48.486;7.964;2023-02-15T09:44:11;25.23;;;15.93;;
4839;SDS011;2434;48.486;7.964;2023-02-15T09:46:55;26.93;;;16.70;;
4839;SDS011;2434;48.486;7.964;2023-02-15T09:49:35;27.10;;;16.87;;
4839;SDS011;2434;48.486;7.964;2023-02-15T09:52:31;25.10;;;16.37;;
4839;SDS011;2434;48.486;7.964;2023-02-15T09:55:14;24.40;;;15.43;;
4839;SDS011;2434;48.486;7.964;2023-02-15T09:57:53;26.33;;;16.80;;
4839;SDS011;2434;48.486;7.964;2023-02-15T10:00:35;23.50;;;15.20;;
4839;SDS011;2434;48.486;7.964;2023-02-15T10:03:22;26.27;;;15.90;;
4839;SDS011;2434;48.486;7.964;2023-02-15T10:06:04;29.73;;;17.70;;
4839;SDS011;2434;48.486;7.964;2023-02-15T10:08:49;27.37;;;16.90;;
4839;SDS011;2434;48.486;7.964;2023-02-15T10:11:29;26.10;;;17.37;;
4839;SDS011;2434;48.486;7.964;2023-02-15T10:14:12;32.50;;;17.93;;
4839;SDS011;2434;48.486;7.964;2023-02-15T10:16:56;29.23;;;17.70;;
4839;SDS011;2434;48.486;7.964;2023-02-15T10:19:34;28.33;;;18.37;;
4839;SDS011;2434;48.486;7.964;2023-02-15T10:22:11;31.40;;;19.10;;
4839;SDS011;2434;48.486;7.964;2023-02-15T10:24:59;27.60;;;16.67;;
4839;SDS011;2434;48.486;7.964;2023-02-15T10:27:41;29.70;;;18.87;;
4839;SDS011;2434;48.486;7.964;2023-02-15T10:30:13;31.10;;;18.40;;
4839;SDS011;2434;48.486;7.964;2023-02-15T10:32:46;25.30;;;18.63;;
4839;SDS011;2434;48.486;7.964;2023-02-15T10:35:26;29.13;;;18.70;;
4839;SDS011;2434;48.486;7.964;2023-02-15T10:38:09;32.67;;;19.50;;
4839;SDS011;2434;48.486;7.964;2023-02-15T10:40:51;29.10;;;18.60;;
4839;SDS011;2434;48.486;7.964;2023-02-15T10:43:36;27.33;;;17.97;;
4839;SDS011;2434;48.486;7.964;2023-02-15T10:46:14;28.07;;;19.13;;
4839;SDS011;2434;48.486;7.964;2023-02-15T10:49:11;28.20;;;17.40;;
4839;SDS011;2434;48.486;7.964;2023-02-15T10:51:53;28.80;;;18.30;;
4839;SDS011;2434;48.486;7.964;2023-02-15T10:54:36;33.20;;;20.33;;
4839;SDS011;2434;48.486;7.964;2023-02-15T10:57:10;32.60;;;19.00;;
4839;SDS011;2434;48.486;7.964;2023-02-15T10:59:53;32.00;;;19.60;;
4839;SDS011;2434;48.486;7.964;2023-02-15T11:05:45;33.17;;;20.53;;
4839;SDS011;2434;48.486;7.964;2023-02-15T11:08:21;32.20;;;19.57;;
4839;SDS011;2434;48.486;7.964;2023-02-15T11:10:52;31.77;;;20.70;;
4839;SDS011;2434;48.486;7.964;2023-02-15T11:13:25;30.77;;;19.90;;
4839;SDS011;2434;48.486;7.964;2023-02-15T11:15:56;34.50;;;20.50;;
4839;SDS011;2434;48.486;7.964;2023-02-15T11:18:30;29.33;;;18.53;;
4839;SDS011;2434;48.486;7.964;2023-02-15T11:21:01;34.30;;;20.83;;
4839;SDS011;2434;48.486;7.964;2023-02-15T11:23:35;34.90;;;19.90;;
4839;SDS011;2434;48.486;7.964;2023-02-15T11:26:10;32.50;;;20.80;;
4839;SDS011;2434;48.486;7.964;2023-02-15T11:28:42;28.73;;;17.60;;
4839;SDS011;2434;48.486;7.964;2023-02-15T11:31:18;32.93;;;20.50;;
4839;SDS011;2434;48.486;7.964;2023-02-15T11:33:49;29.83;;;18.40;;
4839;SDS011;2434;48.486;7.964;2023-02-15T11:36:22;34.10;;;22.50;;
4839;SDS011;2434;48.486;7.964;2023-02-15T11:38:56;36.83;;;22.37;;
4839;SDS011;2434;48.486;7.964;2023-02-15T11:41:27;35.80;;;21.87;;
4839;SDS011;2434;48.486;7.964;2023-02-15T11:43:59;33.33;;;22.00;;
4839;SDS011;2434;48.486;7.964;2023-02-15T11:46:35;33.40;;;20.90;;
4839;SDS011;2434;48.486;7.964;2023-02-15T11:49:07;34.27;;;22.47;;
4839;SDS011;2434;48.486;7.964;2023-02-15T11:51:48;39.83;;;22.93;;
4839;SDS011;2434;48.486;7.964;2023-02-15T11:54:18;33.27;;;22.30;;
4839;SDS011;2434;48.486;7.964;2023-02-15T11:56:54;37.80;;;24.97;;
4839;SDS011;2434;48.486;7.964;2023-02-15T11:59:26;39.37;;;25.13;;
4839;SDS011;2434;48.486;7.964;2023-02-15T12:02:01;42.47;;;26.50;;
4839;SDS011;2434;48.486;7.964;2023-02-15T12:04:30;46.10;;;27.67;;
4839;SDS011;2434;48.486;7.964;2023-02-15T12:07:09;40.00;;;24.97;;
4839;SDS011;2434;48.486;7.964;2023-02-15T12:09:45;41.00;;;25.70;;
4839;SDS011;2434;48.486;7.964;2023-02-15T12:12:20;45.90;;;27.60;;
4839;SDS011;2434;48.486;7.964;2023-02-15T12:14:51;48.33;;;29.90;;
4839;SDS011;2434;48.486;7.964;2023-02-15T12:17:22;47.57;;;30.33;;
4839;SDS011;2434;48.486;7.964;2023-02-15T12:19:52;49.83;;;29.20;;
4839;SDS011;2434;48.486;7.964;2023-02-15T12:22:23;54.23;;;30.63;;
4839;SDS011;2434;48.486;7.964;2023-02-15T12:24:54;49.33;;;31.77;;
4839;SDS011;2434;48.486;7.964;2023-02-15T12:27:24;44.60;;;29.13;;
4839;SDS011;2434;48.486;7.964;2023-02-15T12:29:55;49.90;;;29.90;;
4839;SDS011;2434;48.486;7.964;2023-02-15T12:32:29;51.97;;;30.80;;
4839;SDS011;2434;48.486;7.964;2023-02-15T12:35:01;51.30;;;31.07;;
4839;SDS011;2434;48.486;7.964;2023-02-15T12:37:37;47.73;;;30.00;;
4839;SDS011;2434;48.486;7.964;2023-02-15T12:40:18;50.90;;;33.00;;
4839;SDS011;2434;48.486;7.964;2023-02-15T12:42:47;51.37;;;28.97;;
4839;SDS011;2434;48.486;7.964;2023-02-15T12:45:20;53.03;;;31.97;;
4839;SDS011;2434;48.486;7.964;2023-02-15T12:48:13;52.30;;;30.00;;
4839;SDS011;2434;48.486;7.964;2023-02-15T12:50:43;57.30;;;32.20;;
4839;SDS011;2434;48.486;7.964;2023-02-15T12:53:13;52.80;;;30.97;;
4839;SDS011;2434;48.486;7.964;2023-02-15T12:55:54;53.77;;;31.50;;
4839;SDS011;2434;48.486;7.964;2023-02-15T12:58:24;52.37;;;30.03;;
4839;SDS011;2434;48.486;7.964;2023-02-15T13:01:09;52.43;;;28.50;;
4839;SDS011;2434;48.486;7.964;2023-02-15T13:03:51;53.03;;;31.27;;
4839;SDS011;2434;48.486;7.964;2023-02-15T13:06:32;53.50;;;31.47;;
4839;SDS011;2434;48.486;7.964;2023-02-15T13:09:06;48.33;;;29.77;;
4839;SDS011;2434;48.486;7.964;2023-02-15T13:11:43;53.50;;;34.60;;
4839;SDS011;2434;48.486;7.964;2023-02-15T13:14:16;51.57;;;30.87;;
4839;SDS011;2434;48.486;7.964;2023-02-15T13:16:47;47.27;;;29.60;;
4839;SDS011;2434;48.486;7.964;2023-02-15T13:19:20;58.10;;;31.60;;
4839;SDS011;2434;48.486;7.964;2023-02-15T13:21:56;53.53;;;32.70;;
4839;SDS011;2434;48.486;7.964;2023-02-15T13:24:28;52.33;;;30.90;;
4839;SDS011;2434;48.486;7.964;2023-02-15T13:27:00;51.33;;;32.00;;
4839;SDS011;2434;48.486;7.964;2023-02-15T13:29:41;52.60;;;33.17;;
4839;SDS011;2434;48.486;7.964;2023-02-15T13:32:12;62.67;;;35.27;;
4839;SDS011;2434;48.486;7.964;2023-02-15T13:34:56;55.93;;;32.53;;
4839;SDS011;2434;48.486;7.964;2023-02-15T13:37:45;54.53;;;34.70;;
4839;SDS011;2434;48.486;7.964;2023-02-15T13:40:24;62.70;;;33.23;;
4839;SDS011;2434;48.486;7.964;2023-02-15T13:42:58;49.50;;;30.83;;
4839;SDS011;2434;48.486;7.964;2023-02-15T13:45:35;51.77;;;32.30;;
4839;SDS011;2434;48.486;7.964;2023-02-15T13:48:13;54.30;;;33.90;;
4839;SDS011;2434;48.486;7.964;2023-02-15T13:50:53;55.53;;;34.50;;
4839;SDS011;2434;48.486;7.964;2023-02-15T13:53:37;53.13;;;32.47;;
4839;SDS011;2434;48.486;7.964;2023-02-15T13:56:15;53.67;;;32.83;;
4839;SDS011;2434;48.486;7.964;2023-02-15T13:59:02;54.43;;;32.10;;
4839;SDS011;2434;48.486;7.964;2023-02-15T14:01:49;57.13;;;33.67;;
4839;SDS011;2434;48.486;7.964;2023-02-15T14:07:45;57.03;;;34.60;;
4839;SDS011;2434;48.486;7.964;2023-02-15T14:10:31;63.80;;;36.90;;
4839;SDS011;2434;48.486;7.964;2023-02-15T14:13:31;53.73;;;34.00;;
4839;SDS011;2434;48.486;7.964;2023-02-15T14:16:14;51.03;;;32.27;;
4839;SDS011;2434;48.486;7.964;2023-02-15T14:18:48;60.87;;;37.30;;
4839;SDS011;2434;48.486;7.964;2023-02-15T14:21:25;52.60;;;33.87;;
4839;SDS011;2434;48.486;7.964;2023-02-15T14:24:08;53.60;;;32.17;;
4839;SDS011;2434;48.486;7.964;2023-02-15T14:26:47;47.00;;;31.30;;
4839;SDS011;2434;48.486;7.964;2023-02-15T14:29:24;53.47;;;32.50;;
4839;SDS011;2434;48.486;7.964;2023-02-15T14:32:02;56.47;;;34.63;;
4839;SDS011;2434;48.486;7.964;2023-02-15T14:34:37;59.40;;;35.60;;
4839;SDS011;2434;48.486;7.964;2023-02-15T14:37:12;54.30;;;33.50;;
4839;SDS011;2434;48.486;7.964;2023-02-15T14:39:47;59.63;;;31.37;;
4839;SDS011;2434;48.486;7.964;2023-02-15T14:42:37;50.93;;;32.00;;
4839;SDS011;2434;48.486;7.964;2023-02-15T14:45:15;56.37;;;34.50;;
4839;SDS011;2434;48.486;7.964;2023-02-15T14:47:48;54.87;;;34.63;;
4839;SDS011;2434;48.486;7.964;2023-02-15T14:50:36;55.37;;;33.60;;
4839;SDS011;2434;48.486;7.964;2023-02-15T14:53:33;63.33;;;36.23;;
4839;SDS011;2434;48.486;7.964;2023-02-15T14:56:06;59.90;;;36.00;;
4839;SDS011;2434;48.486;7.964;2023-02-15T14:58:55;56.00;;;35.00;;
4839;SDS011;2434;48.486;7.964;2023-02-15T15:01:26;55.13;;;34.60;;
4839;SDS011;2434;48.486;7.964;2023-02-15T15:03:58;51.43;;;31.73;;
4839;SDS011;2434;48.486;7.964;2023-02-15T15:06:31;60.70;;;36.80;;
4839;SDS011;2434;48.486;7.964;2023-02-15T15:09:05;53.00;;;31.97;;
4839;SDS011;2434;48.486;7.964;2023-02-15T15:11:41;52.43;;;33.40;;
4839;SDS011;2434;48.486;7.964;2023-02-15T15:17:08;52.90;;;33.03;;
4839;SDS011;2434;48.486;7.964;2023-02-15T15:22:43;62.90;;;36.60;;
4839;SDS011;2434;48.486;7.964;2023-02-15T15:25:12;73.50;;;39.27;;
4839;SDS011;2434;48.486;7.964;2023-02-15T15:31:20;80.30;;;42.10;;
4839;SDS011;2434;48.486;7.964;2023-02-15T15:34:05;73.93;;;42.57;;
4839;SDS011;2434;48.486;7.964;2023-02-15T15:37:23;69.23;;;39.87;;
4839;SDS011;2434;48.486;7.964;2023-02-15T15:43:35;80.13;;;40.63;;
4839;SDS011;2434;48.486;7.964;2023-02-15T15:46:30;72.80;;;38.30;;
4839;SDS011;2434;48.486;7.964;2023-02-15T15:49:27;72.27;;;38.57;;
4839;SDS011;2434;48.486;7.964;2023-02-15T15:51:59;73.23;;;39.37;;
4839;SDS011;2434;48.486;7.964;2023-02-15T15:54:29;74.57;;;40.27;;